sensor_id;sensor_type;location;lat;lon;timestamp;P1;durP1;ratioP1;P2;durP2;ratioP2
12784;SDS011;6456;42.680;23.260;2023-02-04T00:01:12;8.37;;;6.10;;
12784;SDS011;6456;42.680;23.260;2023-02-04T00:03:42;8.70;;;6.07;;
12784;SDS011;6456;42.680;23.260;2023-02-04T00:06:09;7.90;;;6.13;;
12784;SDS011;6456;42.680;23.260;2023-02-04T00:08:36;10.70;;;7.53;;
12784;SDS011;6456;42.680;23.260;2023-02-04T00:11:04;8.77;;;6.43;;
12784;SDS011;6456;42.680;23.260;2023-02-04T00:13:31;7.63;;;6.03;;
12784;SDS011;6456;42.680;23.260;2023-02-04T00:15:58;7.30;;;5.33;;
12784;SDS011;6456;42.680;23.260;2023-02-04T00:18:25;8.90;;;6.43;;
12784;SDS011;6456;42.680;23.260;2023-02-04T00:20:51;9.30;;;6.13;;
12784;SDS011;6456;42.680;23.260;2023-02-04T00:23:18;9.07;;;6.77;;
12784;SDS011;6456;42.680;23.260;2023-02-04T00:25:45;10.90;;;6.90;;
12784;SDS011;6456;42.680;23.260;2023-02-04T00:28:13;10.03;;;6.10;;
12784;SDS011;6456;42.680;23.260;2023-02-04T00:30:40;8.20;;;6.03;;
12784;SDS011;6456;42.680;23.260;2023-02-04T00:33:07;9.80;;;6.40;;
12784;SDS011;6456;42.680;23.260;2023-02-04T00:35:34;3.30;;;2.33;;
12784;SDS011;6456;42.680;23.260;2023-02-04T00:38:01;6.30;;;4.17;;
12784;SDS011;6456;42.680;23.260;2023-02-04T00:40:28;2.50;;;1.30;;
12784;SDS011;6456;42.680;23.260;2023-02-04T00:42:55;4.70;;;1.50;;
12784;SDS011;6456;42.680;23.260;2023-02-04T00:45:23;2.53;;;1.63;;
12784;SDS011;6456;42.680;23.260;2023-02-04T00:47:50;2.30;;;1.93;;
12784;SDS011;6456;42.680;23.260;2023-02-04T00:50:17;1.27;;;0.90;;
12784;SDS011;6456;42.680;23.260;2023-02-04T00:52:44;2.17;;;1.00;;
12784;SDS011;6456;42.680;23.260;2023-02-04T00:55:11;2.73;;;1.10;;
12784;SDS011;6456;42.680;23.260;2023-02-04T00:57:41;1.03;;;0.93;;
12784;SDS011;6456;42.680;23.260;2023-02-04T01:00:08;1.73;;;1.20;;
12784;SDS011;6456;42.680;23.260;2023-02-04T01:02:37;0.90;;;0.90;;
12784;SDS011;6456;42.680;23.260;2023-02-04T01:05:06;2.27;;;0.90;;
12784;SDS011;6456;42.680;23.260;2023-02-04T01:07:34;2.00;;;1.10;;
12784;SDS011;6456;42.680;23.260;2023-02-04T01:10:01;1.47;;;1.23;;
12784;SDS011;6456;42.680;23.260;2023-02-04T01:12:29;2.43;;;2.10;;
12784;SDS011;6456;42.680;23.260;2023-02-04T01:14:55;3.40;;;2.70;;
12784;SDS011;6456;42.680;23.260;2023-02-04T01:17:22;2.30;;;2.10;;
12784;SDS011;6456;42.680;23.260;2023-02-04T01:19:51;2.07;;;1.27;;
12784;SDS011;6456;42.680;23.260;2023-02-04T01:22:18;1.30;;;1.20;;
12784;SDS011;6456;42.680;23.260;2023-02-04T01:24:45;1.30;;;1.20;;
12784;SDS011;6456;42.680;23.260;2023-02-04T01:27:13;1.97;;;1.60;;
12784;SDS011;6456;42.680;23.260;2023-02-04T01:29:39;2.33;;;2.00;;
12784;SDS011;6456;42.680;23.260;2023-02-04T01:32:06;1.10;;;1.00;;
12784;SDS011;6456;42.680;23.260;2023-02-04T01:34:33;2.17;;;1.97;;
12784;SDS011;6456;42.680;23.260;2023-02-04T01:37:01;3.83;;;2.67;;
12784;SDS011;6456;42.680;23.260;2023-02-04T01:39:28;1.43;;;1.33;;
12784;SDS011;6456;42.680;23.260;2023-02-04T01:41:55;1.33;;;1.10;;
12784;SDS011;6456;42.680;23.260;2023-02-04T01:44:22;5.93;;;3.40;;
12784;SDS011;6456;42.680;23.260;2023-02-04T01:46:49;3.70;;;3.30;;
12784;SDS011;6456;42.680;23.260;2023-02-04T01:49:16;1.83;;;1.60;;
12784;SDS011;6456;42.680;23.260;2023-02-04T01:51:43;3.03;;;2.53;;
12784;SDS011;6456;42.680;23.260;2023-02-04T01:54:11;1.43;;;1.33;;
12784;SDS011;6456;42.680;23.260;2023-02-04T01:56:42;1.17;;;1.17;;
12784;SDS011;6456;42.680;23.260;2023-02-04T01:59:11;1.73;;;1.30;;
12784;SDS011;6456;42.680;23.260;2023-02-04T02:01:40;1.17;;;1.00;;
12784;SDS011;6456;42.680;23.260;2023-02-04T02:04:09;1.40;;;1.30;;
12784;SDS011;6456;42.680;23.260;2023-02-04T02:06:38;3.40;;;2.90;;
12784;SDS011;6456;42.680;23.260;2023-02-04T02:09:08;2.80;;;2.60;;
12784;SDS011;6456;42.680;23.260;2023-02-04T02:11:36;3.83;;;2.50;;
12784;SDS011;6456;42.680;23.260;2023-02-04T02:14:03;2.90;;;2.27;;
12784;SDS011;6456;42.680;23.260;2023-02-04T02:16:30;0.97;;;0.97;;
12784;SDS011;6456;42.680;23.260;2023-02-04T02:18:57;2.17;;;1.20;;
12784;SDS011;6456;42.680;23.260;2023-02-04T02:49:17;1.00;;;1.00;;
12784;SDS011;6456;42.680;23.260;2023-02-04T02:51:45;1.00;;;1.00;;
12784;SDS011;6456;42.680;23.260;2023-02-04T02:54:17;0.80;;;0.80;;
12784;SDS011;6456;42.680;23.260;2023-02-04T02:56:47;0.70;;;0.70;;
12784;SDS011;6456;42.680;23.260;2023-02-04T02:59:14;0.63;;;0.63;;
12784;SDS011;6456;42.680;23.260;2023-02-04T03:01:42;0.93;;;0.90;;
12784;SDS011;6456;42.680;23.260;2023-02-04T03:04:12;0.80;;;0.80;;
12784;SDS011;6456;42.680;23.260;2023-02-04T03:06:39;1.00;;;0.87;;
12784;SDS011;6456;42.680;23.260;2023-02-04T03:09:06;0.80;;;0.80;;
12784;SDS011;6456;42.680;23.260;2023-02-04T03:11:34;1.23;;;0.83;;
12784;SDS011;6456;42.680;23.260;2023-02-04T03:14:01;0.70;;;0.70;;
12784;SDS011;6456;42.680;23.260;2023-02-04T03:16:29;1.60;;;1.00;;
12784;SDS011;6456;42.680;23.260;2023-02-04T03:18:59;0.87;;;0.70;;
12784;SDS011;6456;42.680;23.260;2023-02-04T03:21:28;0.80;;;0.80;;
12784;SDS011;6456;42.680;23.260;2023-02-04T03:23:55;0.90;;;0.90;;
12784;SDS011;6456;42.680;23.260;2023-02-04T03:26:22;1.47;;;0.90;;
12784;SDS011;6456;42.680;23.260;2023-02-04T03:28:49;0.80;;;0.80;;
12784;SDS011;6456;42.680;23.260;2023-02-04T03:31:16;0.87;;;0.87;;
12784;SDS011;6456;42.680;23.260;2023-02-04T03:33:43;0.73;;;0.73;;
12784;SDS011;6456;42.680;23.260;2023-02-04T03:36:10;1.07;;;0.97;;
12784;SDS011;6456;42.680;23.260;2023-02-04T03:38:38;1.07;;;0.80;;
12784;SDS011;6456;42.680;23.260;2023-02-04T03:41:06;1.43;;;0.90;;
12784;SDS011;6456;42.680;23.260;2023-02-04T03:43:33;1.37;;;0.90;;
12784;SDS011;6456;42.680;23.260;2023-02-04T03:46:00;0.70;;;0.70;;
12784;SDS011;6456;42.680;23.260;2023-02-04T03:48:27;0.80;;;0.80;;
12784;SDS011;6456;42.680;23.260;2023-02-04T03:50:54;0.90;;;0.90;;
12784;SDS011;6456;42.680;23.260;2023-02-04T03:53:21;1.60;;;1.23;;
12784;SDS011;6456;42.680;23.260;2023-02-04T03:55:50;1.00;;;0.90;;
12784;SDS011;6456;42.680;23.260;2023-02-04T03:58:16;1.10;;;1.07;;
12784;SDS011;6456;42.680;23.260;2023-02-04T04:00:43;0.80;;;0.80;;
12784;SDS011;6456;42.680;23.260;2023-02-04T04:03:10;1.33;;;1.07;;
12784;SDS011;6456;42.680;23.260;2023-02-04T04:05:37;1.00;;;1.00;;
12784;SDS011;6456;42.680;23.260;2023-02-04T04:08:04;1.47;;;1.20;;
12784;SDS011;6456;42.680;23.260;2023-02-04T04:10:31;1.37;;;1.07;;
12784;SDS011;6456;42.680;23.260;2023-02-04T04:13:00;1.13;;;0.80;;
12784;SDS011;6456;42.680;23.260;2023-02-04T04:15:26;1.83;;;1.00;;
12784;SDS011;6456;42.680;23.260;2023-02-04T04:17:54;1.00;;;0.90;;
12784;SDS011;6456;42.680;23.260;2023-02-04T04:20:21;0.87;;;0.87;;
12784;SDS011;6456;42.680;23.260;2023-02-04T04:22:49;1.57;;;1.20;;
12784;SDS011;6456;42.680;23.260;2023-02-04T04:25:16;1.70;;;1.00;;
12784;SDS011;6456;42.680;23.260;2023-02-04T04:27:43;1.73;;;1.20;;
12784;SDS011;6456;42.680;23.260;2023-02-04T04:30:12;1.60;;;1.50;;
12784;SDS011;6456;42.680;23.260;2023-02-04T04:32:39;2.57;;;0.93;;
12784;SDS011;6456;42.680;23.260;2023-02-04T04:35:06;1.17;;;0.83;;
12784;SDS011;6456;42.680;23.260;2023-02-04T04:37:33;1.53;;;0.80;;
12784;SDS011;6456;42.680;23.260;2023-02-04T04:40:00;1.13;;;1.03;;
12784;SDS011;6456;42.680;23.260;2023-02-04T04:42:27;0.97;;;0.73;;
12784;SDS011;6456;42.680;23.260;2023-02-04T04:44:54;0.77;;;0.77;;
12784;SDS011;6456;42.680;23.260;2023-02-04T04:47:22;1.57;;;0.97;;
12784;SDS011;6456;42.680;23.260;2023-02-04T04:49:49;1.70;;;1.23;;
12784;SDS011;6456;42.680;23.260;2023-02-04T04:52:16;0.70;;;0.70;;
12784;SDS011;6456;42.680;23.260;2023-02-04T04:54:43;1.13;;;1.03;;
12784;SDS011;6456;42.680;23.260;2023-02-04T04:57:09;0.80;;;0.80;;
12784;SDS011;6456;42.680;23.260;2023-02-04T04:59:38;1.07;;;0.90;;
12784;SDS011;6456;42.680;23.260;2023-02-04T05:02:05;1.30;;;0.90;;
12784;SDS011;6456;42.680;23.260;2023-02-04T05:04:36;1.30;;;0.77;;
12784;SDS011;6456;42.680;23.260;2023-02-04T05:07:03;1.27;;;1.00;;
12784;SDS011;6456;42.680;23.260;2023-02-04T05:09:29;1.73;;;1.10;;
12784;SDS011;6456;42.680;23.260;2023-02-04T05:11:56;1.50;;;1.17;;
12784;SDS011;6456;42.680;23.260;2023-02-04T05:14:23;4.17;;;1.07;;
12784;SDS011;6456;42.680;23.260;2023-02-04T05:16:50;0.87;;;0.87;;
12784;SDS011;6456;42.680;23.260;2023-02-04T05:19:18;1.80;;;1.33;;
12784;SDS011;6456;42.680;23.260;2023-02-04T05:21:46;1.50;;;1.07;;
12784;SDS011;6456;42.680;23.260;2023-02-04T05:24:13;1.90;;;1.20;;
12784;SDS011;6456;42.680;23.260;2023-02-04T05:26:40;1.33;;;0.90;;
12784;SDS011;6456;42.680;23.260;2023-02-04T05:29:07;0.93;;;0.80;;
12784;SDS011;6456;42.680;23.260;2023-02-04T05:31:34;2.10;;;1.00;;
12784;SDS011;6456;42.680;23.260;2023-02-04T05:34:01;1.60;;;1.17;;
12784;SDS011;6456;42.680;23.260;2023-02-04T05:36:28;1.37;;;1.13;;
12784;SDS011;6456;42.680;23.260;2023-02-04T05:38:56;1.90;;;1.60;;
12784;SDS011;6456;42.680;23.260;2023-02-04T05:41:23;2.97;;;1.00;;
12784;SDS011;6456;42.680;23.260;2023-02-04T05:43:50;1.30;;;1.20;;
12784;SDS011;6456;42.680;23.260;2023-02-04T05:46:16;2.67;;;1.53;;
12784;SDS011;6456;42.680;23.260;2023-02-04T05:48:43;1.53;;;1.30;;
12784;SDS011;6456;42.680;23.260;2023-02-04T05:51:10;3.20;;;1.63;;
12784;SDS011;6456;42.680;23.260;2023-02-04T05:53:37;1.53;;;1.43;;
12784;SDS011;6456;42.680;23.260;2023-02-04T05:56:05;2.60;;;1.50;;
12784;SDS011;6456;42.680;23.260;2023-02-04T05:58:32;1.33;;;0.90;;
12784;SDS011;6456;42.680;23.260;2023-02-04T06:00:59;1.93;;;1.43;;
12784;SDS011;6456;42.680;23.260;2023-02-04T06:03:27;1.07;;;0.97;;
12784;SDS011;6456;42.680;23.260;2023-02-04T06:05:55;2.07;;;1.10;;
12784;SDS011;6456;42.680;23.260;2023-02-04T06:08:22;1.77;;;1.13;;
12784;SDS011;6456;42.680;23.260;2023-02-04T06:10:49;1.53;;;1.33;;
12784;SDS011;6456;42.680;23.260;2023-02-04T06:13:18;2.90;;;1.27;;
12784;SDS011;6456;42.680;23.260;2023-02-04T06:15:45;1.40;;;1.17;;
12784;SDS011;6456;42.680;23.260;2023-02-04T06:18:12;1.20;;;1.10;;
12784;SDS011;6456;42.680;23.260;2023-02-04T06:20:39;1.33;;;1.23;;
12784;SDS011;6456;42.680;23.260;2023-02-04T06:23:06;1.33;;;1.10;;
12784;SDS011;6456;42.680;23.260;2023-02-04T06:25:32;1.10;;;1.10;;
12784;SDS011;6456;42.680;23.260;2023-02-04T06:27:59;1.20;;;1.10;;
12784;SDS011;6456;42.680;23.260;2023-02-04T06:30:27;1.27;;;1.10;;
12784;SDS011;6456;42.680;23.260;2023-02-04T06:32:54;1.30;;;1.20;;
12784;SDS011;6456;42.680;23.260;2023-02-04T06:35:21;1.73;;;1.10;;
12784;SDS011;6456;42.680;23.260;2023-02-04T06:37:48;1.00;;;1.00;;
12784;SDS011;6456;42.680;23.260;2023-02-04T06:40:15;2.73;;;1.30;;
12784;SDS011;6456;42.680;23.260;2023-02-04T06:42:42;3.20;;;1.10;;
12784;SDS011;6456;42.680;23.260;2023-02-04T06:45:09;1.93;;;1.33;;
12784;SDS011;6456;42.680;23.260;2023-02-04T06:47:37;1.53;;;1.43;;
12784;SDS011;6456;42.680;23.260;2023-02-04T06:50:04;3.07;;;1.47;;
12784;SDS011;6456;42.680;23.260;2023-02-04T06:52:31;1.83;;;1.10;;
12784;SDS011;6456;42.680;23.260;2023-02-04T06:54:58;1.93;;;1.20;;
12784;SDS011;6456;42.680;23.260;2023-02-04T06:57:25;1.93;;;1.17;;
12784;SDS011;6456;42.680;23.260;2023-02-04T06:59:52;2.13;;;1.40;;
12784;SDS011;6456;42.680;23.260;2023-02-04T07:02:19;2.30;;;1.40;;
12784;SDS011;6456;42.680;23.260;2023-02-04T07:04:47;3.13;;;1.70;;
12784;SDS011;6456;42.680;23.260;2023-02-04T07:07:14;3.27;;;1.70;;
12784;SDS011;6456;42.680;23.260;2023-02-04T07:09:40;1.80;;;1.33;;
12784;SDS011;6456;42.680;23.260;2023-02-04T07:12:07;1.97;;;1.37;;
12784;SDS011;6456;42.680;23.260;2023-02-04T07:14:34;4.00;;;1.57;;
12784;SDS011;6456;42.680;23.260;2023-02-04T07:17:01;3.17;;;1.70;;
12784;SDS011;6456;42.680;23.260;2023-02-04T07:19:28;2.23;;;1.60;;
12784;SDS011;6456;42.680;23.260;2023-02-04T07:21:56;3.53;;;2.07;;
12784;SDS011;6456;42.680;23.260;2023-02-04T07:24:23;1.73;;;1.50;;
12784;SDS011;6456;42.680;23.260;2023-02-04T07:26:50;1.40;;;1.30;;
12784;SDS011;6456;42.680;23.260;2023-02-04T07:29:17;3.10;;;1.77;;
12784;SDS011;6456;42.680;23.260;2023-02-04T07:31:44;3.97;;;2.17;;
12784;SDS011;6456;42.680;23.260;2023-02-04T07:34:11;1.47;;;1.20;;
12784;SDS011;6456;42.680;23.260;2023-02-04T07:36:38;1.73;;;1.20;;
12784;SDS011;6456;42.680;23.260;2023-02-04T07:39:06;3.40;;;1.53;;
12784;SDS011;6456;42.680;23.260;2023-02-04T07:41:33;1.70;;;1.50;;
12784;SDS011;6456;42.680;23.260;2023-02-04T07:44:01;1.40;;;1.30;;
12784;SDS011;6456;42.680;23.260;2023-02-04T07:46:28;1.83;;;1.70;;
12784;SDS011;6456;42.680;23.260;2023-02-04T07:48:55;2.30;;;1.30;;
12784;SDS011;6456;42.680;23.260;2023-02-04T07:51:22;2.63;;;1.50;;
12784;SDS011;6456;42.680;23.260;2023-02-04T07:53:49;1.77;;;1.43;;
12784;SDS011;6456;42.680;23.260;2023-02-04T07:56:17;2.10;;;1.60;;
12784;SDS011;6456;42.680;23.260;2023-02-04T07:58:44;2.10;;;1.40;;
12784;SDS011;6456;42.680;23.260;2023-02-04T08:01:10;1.73;;;1.37;;
12784;SDS011;6456;42.680;23.260;2023-02-04T08:03:37;1.60;;;1.50;;
12784;SDS011;6456;42.680;23.260;2023-02-04T08:06:04;1.60;;;1.40;;
12784;SDS011;6456;42.680;23.260;2023-02-04T08:08:31;2.00;;;1.37;;
12784;SDS011;6456;42.680;23.260;2023-02-04T08:10:58;3.13;;;1.80;;
12784;SDS011;6456;42.680;23.260;2023-02-04T08:13:26;2.27;;;1.53;;
12784;SDS011;6456;42.680;23.260;2023-02-04T08:15:53;1.70;;;1.60;;
12784;SDS011;6456;42.680;23.260;2023-02-04T08:18:20;2.83;;;1.97;;
12784;SDS011;6456;42.680;23.260;2023-02-04T08:20:49;1.20;;;1.10;;
12784;SDS011;6456;42.680;23.260;2023-02-04T08:23:15;2.97;;;1.17;;
12784;SDS011;6456;42.680;23.260;2023-02-04T08:25:42;2.00;;;1.20;;
12784;SDS011;6456;42.680;23.260;2023-02-04T08:28:09;1.57;;;1.40;;
12784;SDS011;6456;42.680;23.260;2023-02-04T08:30:37;3.90;;;2.50;;
12784;SDS011;6456;42.680;23.260;2023-02-04T08:33:04;2.83;;;1.53;;
12784;SDS011;6456;42.680;23.260;2023-02-04T08:35:31;2.70;;;1.77;;
12784;SDS011;6456;42.680;23.260;2023-02-04T08:37:58;3.50;;;1.57;;
12784;SDS011;6456;42.680;23.260;2023-02-04T08:40:25;1.90;;;1.70;;
12784;SDS011;6456;42.680;23.260;2023-02-04T08:42:52;2.67;;;1.97;;
12784;SDS011;6456;42.680;23.260;2023-02-04T08:45:18;1.30;;;1.20;;
12784;SDS011;6456;42.680;23.260;2023-02-04T08:47:47;1.93;;;1.70;;
12784;SDS011;6456;42.680;23.260;2023-02-04T08:50:14;3.00;;;1.73;;
12784;SDS011;6456;42.680;23.260;2023-02-04T08:52:41;3.67;;;1.93;;
12784;SDS011;6456;42.680;23.260;2023-02-04T08:55:08;2.67;;;1.70;;
12784;SDS011;6456;42.680;23.260;2023-02-04T08:57:35;4.33;;;2.10;;
12784;SDS011;6456;42.680;23.260;2023-02-04T09:00:02;3.23;;;1.97;;
12784;SDS011;6456;42.680;23.260;2023-02-04T09:02:32;4.20;;;2.40;;
12784;SDS011;6456;42.680;23.260;2023-02-04T09:05:00;4.43;;;2.57;;
12784;SDS011;6456;42.680;23.260;2023-02-04T09:07:27;5.83;;;2.60;;
12784;SDS011;6456;42.680;23.260;2023-02-04T09:09:54;3.47;;;2.40;;
12784;SDS011;6456;42.680;23.260;2023-02-04T09:12:20;3.93;;;2.10;;
12784;SDS011;6456;42.680;23.260;2023-02-04T09:14:47;3.37;;;2.93;;
12784;SDS011;6456;42.680;23.260;2023-02-04T09:17:14;3.73;;;2.40;;
12784;SDS011;6456;42.680;23.260;2023-02-04T09:19:41;3.37;;;2.30;;
12784;SDS011;6456;42.680;23.260;2023-02-04T09:22:09;3.73;;;2.43;;
12784;SDS011;6456;42.680;23.260;2023-02-04T09:24:37;2.27;;;2.07;;
12784;SDS011;6456;42.680;23.260;2023-02-04T09:27:04;2.00;;;1.80;;
12784;SDS011;6456;42.680;23.260;2023-02-04T09:29:31;2.33;;;1.77;;
12784;SDS011;6456;42.680;23.260;2023-02-04T09:31:58;2.83;;;1.60;;
12784;SDS011;6456;42.680;23.260;2023-02-04T09:34:24;1.50;;;1.40;;
12784;SDS011;6456;42.680;23.260;2023-02-04T09:36:51;2.17;;;1.30;;
12784;SDS011;6456;42.680;23.260;2023-02-04T09:39:19;2.17;;;1.60;;
12784;SDS011;6456;42.680;23.260;2023-02-04T09:41:46;2.27;;;1.50;;
12784;SDS011;6456;42.680;23.260;2023-02-04T09:44:14;1.60;;;1.50;;
12784;SDS011;6456;42.680;23.260;2023-02-04T09:46:45;2.30;;;2.00;;
12784;SDS011;6456;42.680;23.260;2023-02-04T09:49:14;2.50;;;2.00;;
12784;SDS011;6456;42.680;23.260;2023-02-04T09:51:41;2.23;;;1.83;;
12784;SDS011;6456;42.680;23.260;2023-02-04T09:54:11;2.10;;;1.83;;
12784;SDS011;6456;42.680;23.260;2023-02-04T09:56:41;2.37;;;1.80;;
12784;SDS011;6456;42.680;23.260;2023-02-04T09:59:09;3.53;;;1.80;;
12784;SDS011;6456;42.680;23.260;2023-02-04T10:01:38;2.80;;;1.50;;
12784;SDS011;6456;42.680;23.260;2023-02-04T10:04:07;2.40;;;2.00;;
12784;SDS011;6456;42.680;23.260;2023-02-04T10:06:37;2.80;;;1.97;;
12784;SDS011;6456;42.680;23.260;2023-02-04T10:09:05;1.70;;;1.60;;
12784;SDS011;6456;42.680;23.260;2023-02-04T10:11:33;2.37;;;1.70;;
12784;SDS011;6456;42.680;23.260;2023-02-04T10:14:04;2.17;;;1.53;;
12784;SDS011;6456;42.680;23.260;2023-02-04T10:16:35;1.80;;;1.60;;
12784;SDS011;6456;42.680;23.260;2023-02-04T10:19:06;1.70;;;1.60;;
12784;SDS011;6456;42.680;23.260;2023-02-04T10:21:39;1.67;;;1.57;;
12784;SDS011;6456;42.680;23.260;2023-02-04T10:24:09;2.03;;;1.50;;
12784;SDS011;6456;42.680;23.260;2023-02-04T10:26:39;1.20;;;1.10;;
12784;SDS011;6456;42.680;23.260;2023-02-04T10:29:11;1.40;;;1.30;;
12784;SDS011;6456;42.680;23.260;2023-02-04T10:31:41;1.63;;;1.30;;
12784;SDS011;6456;42.680;23.260;2023-02-04T10:34:10;1.30;;;1.20;;
12784;SDS011;6456;42.680;23.260;2023-02-04T10:36:39;1.47;;;1.30;;
12784;SDS011;6456;42.680;23.260;2023-02-04T10:39:09;0.87;;;0.87;;
12784;SDS011;6456;42.680;23.260;2023-02-04T10:41:43;1.00;;;1.00;;
12784;SDS011;6456;42.680;23.260;2023-02-04T10:44:12;1.83;;;1.40;;
12784;SDS011;6456;42.680;23.260;2023-02-04T10:46:40;2.03;;;1.50;;
12784;SDS011;6456;42.680;23.260;2023-02-04T10:49:15;2.00;;;1.77;;
12784;SDS011;6456;42.680;23.260;2023-02-04T10:51:44;1.40;;;1.30;;
12784;SDS011;6456;42.680;23.260;2023-02-04T10:54:12;2.37;;;2.23;;
12784;SDS011;6456;42.680;23.260;2023-02-04T10:56:58;2.20;;;1.77;;
12784;SDS011;6456;42.680;23.260;2023-02-04T10:59:29;1.50;;;1.40;;
12784;SDS011;6456;42.680;23.260;2023-02-04T11:01:57;1.77;;;1.63;;
12784;SDS011;6456;42.680;23.260;2023-02-04T11:04:26;3.17;;;1.57;;
12784;SDS011;6456;42.680;23.260;2023-02-04T11:06:53;5.47;;;1.67;;
12784;SDS011;6456;42.680;23.260;2023-02-04T11:09:20;1.83;;;1.57;;
12784;SDS011;6456;42.680;23.260;2023-02-04T11:11:48;2.50;;;1.80;;
12784;SDS011;6456;42.680;23.260;2023-02-04T11:14:23;0.90;;;0.90;;
12784;SDS011;6456;42.680;23.260;2023-02-04T11:16:55;1.37;;;1.27;;
12784;SDS011;6456;42.680;23.260;2023-02-04T11:19:35;1.40;;;1.30;;
12784;SDS011;6456;42.680;23.260;2023-02-04T11:22:05;1.27;;;1.17;;
12784;SDS011;6456;42.680;23.260;2023-02-04T11:24:33;1.77;;;1.20;;
12784;SDS011;6456;42.680;23.260;2023-02-04T11:27:05;0.90;;;0.90;;
12784;SDS011;6456;42.680;23.260;2023-02-04T11:29:34;0.90;;;0.90;;
12784;SDS011;6456;42.680;23.260;2023-02-04T11:32:05;1.43;;;1.33;;
12784;SDS011;6456;42.680;23.260;2023-02-04T11:34:51;1.33;;;1.23;;
12784;SDS011;6456;42.680;23.260;2023-02-04T11:37:32;1.37;;;1.10;;
12784;SDS011;6456;42.680;23.260;2023-02-04T11:40:10;0.77;;;0.77;;
12784;SDS011;6456;42.680;23.260;2023-02-04T11:42:46;2.70;;;1.10;;
12784;SDS011;6456;42.680;23.260;2023-02-04T11:45:15;1.13;;;1.03;;
12784;SDS011;6456;42.680;23.260;2023-02-04T11:47:44;1.77;;;1.50;;
12784;SDS011;6456;42.680;23.260;2023-02-04T11:50:13;1.53;;;1.40;;
12784;SDS011;6456;42.680;23.260;2023-02-04T11:52:45;1.40;;;1.30;;
12784;SDS011;6456;42.680;23.260;2023-02-04T11:55:12;2.70;;;1.27;;
12784;SDS011;6456;42.680;23.260;2023-02-04T11:57:40;2.00;;;1.27;;
12784;SDS011;6456;42.680;23.260;2023-02-04T12:00:12;1.20;;;0.97;;
12784;SDS011;6456;42.680;23.260;2023-02-04T12:02:41;0.90;;;0.90;;
12784;SDS011;6456;42.680;23.260;2023-02-04T12:05:12;1.40;;;1.30;;
12784;SDS011;6456;42.680;23.260;2023-02-04T12:07:40;1.33;;;1.17;;
12784;SDS011;6456;42.680;23.260;2023-02-04T12:10:11;1.27;;;0.80;;
12784;SDS011;6456;42.680;23.260;2023-02-04T12:12:41;1.10;;;0.90;;
12784;SDS011;6456;42.680;23.260;2023-02-04T12:15:13;0.90;;;0.90;;
12784;SDS011;6456;42.680;23.260;2023-02-04T12:17:43;1.20;;;1.10;;
12784;SDS011;6456;42.680;23.260;2023-02-04T12:20:15;1.93;;;1.50;;
12784;SDS011;6456;42.680;23.260;2023-02-04T12:22:42;1.70;;;1.40;;
12784;SDS011;6456;42.680;23.260;2023-02-04T12:25:11;2.00;;;1.80;;
12784;SDS011;6456;42.680;23.260;2023-02-04T12:27:41;2.40;;;1.70;;
12784;SDS011;6456;42.680;23.260;2023-02-04T12:30:08;2.53;;;1.70;;
12784;SDS011;6456;42.680;23.260;2023-02-04T12:32:36;1.10;;;1.00;;
12784;SDS011;6456;42.680;23.260;2023-02-04T12:35:03;1.67;;;1.30;;
12784;SDS011;6456;42.680;23.260;2023-02-04T12:37:33;2.00;;;1.20;;
12784;SDS011;6456;42.680;23.260;2023-02-04T12:40:00;2.67;;;1.50;;
12784;SDS011;6456;42.680;23.260;2023-02-04T12:42:27;1.50;;;1.40;;
12784;SDS011;6456;42.680;23.260;2023-02-04T12:44:54;2.10;;;1.37;;
12784;SDS011;6456;42.680;23.260;2023-02-04T12:47:20;1.33;;;1.10;;
12784;SDS011;6456;42.680;23.260;2023-02-04T12:49:47;2.90;;;1.50;;
12784;SDS011;6456;42.680;23.260;2023-02-04T12:52:14;1.20;;;1.10;;
12784;SDS011;6456;42.680;23.260;2023-02-04T12:54:43;1.93;;;1.20;;
12784;SDS011;6456;42.680;23.260;2023-02-04T12:57:10;1.47;;;1.20;;
12784;SDS011;6456;42.680;23.260;2023-02-04T12:59:38;1.43;;;1.30;;
12784;SDS011;6456;42.680;23.260;2023-02-04T13:02:05;0.90;;;0.90;;
12784;SDS011;6456;42.680;23.260;2023-02-04T13:04:35;1.00;;;0.90;;
12784;SDS011;6456;42.680;23.260;2023-02-04T13:07:02;0.80;;;0.80;;
12784;SDS011;6456;42.680;23.260;2023-02-04T13:09:31;0.73;;;0.73;;
12784;SDS011;6456;42.680;23.260;2023-02-04T13:11:59;0.97;;;0.90;;
12784;SDS011;6456;42.680;23.260;2023-02-04T13:14:26;1.17;;;0.80;;
12784;SDS011;6456;42.680;23.260;2023-02-04T13:16:57;0.97;;;0.63;;
12784;SDS011;6456;42.680;23.260;2023-02-04T13:19:24;0.63;;;0.63;;
12784;SDS011;6456;42.680;23.260;2023-02-04T13:21:55;0.50;;;0.50;;
12784;SDS011;6456;42.680;23.260;2023-02-04T13:24:23;0.57;;;0.57;;
12784;SDS011;6456;42.680;23.260;2023-02-04T13:26:52;0.80;;;0.60;;
12784;SDS011;6456;42.680;23.260;2023-02-04T13:29:21;0.60;;;0.60;;
12784;SDS011;6456;42.680;23.260;2023-02-04T13:31:51;2.00;;;0.70;;
12784;SDS011;6456;42.680;23.260;2023-02-04T13:34:18;0.87;;;0.80;;
12784;SDS011;6456;42.680;23.260;2023-02-04T13:36:45;0.77;;;0.77;;
12784;SDS011;6456;42.680;23.260;2023-02-04T13:39:12;1.33;;;0.70;;
12784;SDS011;6456;42.680;23.260;2023-02-04T13:41:39;0.50;;;0.50;;
12784;SDS011;6456;42.680;23.260;2023-02-04T13:44:06;0.60;;;0.60;;
12784;SDS011;6456;42.680;23.260;2023-02-04T13:46:34;0.50;;;0.50;;
12784;SDS011;6456;42.680;23.260;2023-02-04T13:49:01;0.60;;;0.60;;
12784;SDS011;6456;42.680;23.260;2023-02-04T13:51:28;0.70;;;0.70;;
12784;SDS011;6456;42.680;23.260;2023-02-04T13:53:55;0.70;;;0.70;;
12784;SDS011;6456;42.680;23.260;2023-02-04T13:56:22;0.70;;;0.70;;
12784;SDS011;6456;42.680;23.260;2023-02-04T13:58:49;0.77;;;0.77;;
12784;SDS011;6456;42.680;23.260;2023-02-04T14:01:16;0.67;;;0.67;;
12784;SDS011;6456;42.680;23.260;2023-02-04T14:03:44;0.90;;;0.90;;
12784;SDS011;6456;42.680;23.260;2023-02-04T14:06:11;0.80;;;0.80;;
12784;SDS011;6456;42.680;23.260;2023-02-04T14:08:39;0.90;;;0.90;;
12784;SDS011;6456;42.680;23.260;2023-02-04T14:11:06;1.30;;;1.30;;
12784;SDS011;6456;42.680;23.260;2023-02-04T14:13:33;2.27;;;1.40;;
12784;SDS011;6456;42.680;23.260;2023-02-04T14:15:59;1.20;;;1.10;;
12784;SDS011;6456;42.680;23.260;2023-02-04T14:18:26;1.00;;;1.00;;
12784;SDS011;6456;42.680;23.260;2023-02-04T14:20:54;2.33;;;1.23;;
12784;SDS011;6456;42.680;23.260;2023-02-04T14:23:21;1.37;;;1.27;;
12784;SDS011;6456;42.680;23.260;2023-02-04T14:25:49;1.97;;;1.50;;
12784;SDS011;6456;42.680;23.260;2023-02-04T14:28:15;1.60;;;1.27;;
12784;SDS011;6456;42.680;23.260;2023-02-04T14:30:42;1.67;;;1.30;;
12784;SDS011;6456;42.680;23.260;2023-02-04T14:33:09;0.80;;;0.80;;
12784;SDS011;6456;42.680;23.260;2023-02-04T14:35:37;0.93;;;0.93;;
12784;SDS011;6456;42.680;23.260;2023-02-04T14:38:05;0.60;;;0.60;;
12784;SDS011;6456;42.680;23.260;2023-02-04T14:40:32;0.97;;;0.90;;
12784;SDS011;6456;42.680;23.260;2023-02-04T14:42:59;1.40;;;1.30;;
12784;SDS011;6456;42.680;23.260;2023-02-04T14:45:26;0.90;;;0.90;;
12784;SDS011;6456;42.680;23.260;2023-02-04T14:47:53;0.87;;;0.87;;
12784;SDS011;6456;42.680;23.260;2023-02-04T14:50:21;0.93;;;0.93;;
12784;SDS011;6456;42.680;23.260;2023-02-04T14:52:51;0.70;;;0.70;;
12784;SDS011;6456;42.680;23.260;2023-02-04T14:55:19;1.03;;;1.03;;
12784;SDS011;6456;42.680;23.260;2023-02-04T14:57:46;1.20;;;1.10;;
12784;SDS011;6456;42.680;23.260;2023-02-04T15:00:13;1.10;;;1.10;;
12784;SDS011;6456;42.680;23.260;2023-02-04T15:02:40;1.50;;;1.33;;
12784;SDS011;6456;42.680;23.260;2023-02-04T15:05:08;1.00;;;1.00;;
12784;SDS011;6456;42.680;23.260;2023-02-04T15:07:35;1.80;;;1.27;;
12784;SDS011;6456;42.680;23.260;2023-02-04T15:10:03;1.10;;;1.00;;
12784;SDS011;6456;42.680;23.260;2023-02-04T15:12:32;1.60;;;1.10;;
12784;SDS011;6456;42.680;23.260;2023-02-04T15:14:59;1.30;;;1.20;;
12784;SDS011;6456;42.680;23.260;2023-02-04T15:17:26;1.27;;;1.17;;
12784;SDS011;6456;42.680;23.260;2023-02-04T15:19:52;1.10;;;1.10;;